Time;durP1;ratioP1;P1;durP2;ratioP2;P2;SDS_P1;SDS_P2;PMS_P1;PMS_P2;Temp;Humidity;BMP_temperature;BMP_pressure;BME280_temperature;BME280_humidity;BME280_pressure;Samples;Min_cycle;Max_cycle;Signal;HPM_P1;HPM_P2
2023/09/22 00:00:25;;;;;;;;;0.00;0.00;;;;;-147.14;100.00;58812.66;5085865;27;45643;-59
2023/09/22 00:02:50;;;;;;;;;0.00;0.00;;;;;-147.14;100.00;58812.66;5089250;27;45433;-59
2023/09/22 00:05:15;;;;;;;;;0.00;0.00;;;;;-147.14;100.00;58812.66;5085320;27;66539;-59
2023/09/22 00:07:42;;;;;;;;;0.33;0.00;;;;;-147.14;100.00;58812.66;5083845;27;46009;-59
2023/09/22 00:10:08;;;;;;;;;0.00;0.00;;;;;-147.14;100.00;58812.66;5082965;27;45510;-59
2023/09/22 00:12:34;;;;;;;;;0.00;0.00;;;;;-147.14;100.00;58812.66;5085311;27;45490;-59
2023/09/22 00:15:00;;;;;;;;;0.00;0.00;;;;;-147.14;100.00;58812.66;5090582;27;45257;-58
2023/09/22 00:17:26;;;;;;;;;0.00;0.00;;;;;-147.14;100.00;58812.66;5085717;27;45564;-59
2023/09/22 00:19:51;;;;;;;;;0.00;0.00;;;;;-147.14;100.00;58812.66;5071470;27;45310;-59
2023/09/22 00:22:17;;;;;;;;;0.00;0.00;;;;;-147.14;100.00;58812.66;5094484;27;61818;-59
2023/09/22 00:24:42;;;;;;;;;0.00;0.00;;;;;-147.14;100.00;58812.66;5089493;27;69869;-59
2023/09/22 00:27:07;;;;;;;;;0.00;0.00;;;;;-147.14;100.00;58812.66;5096755;27;64968;-59
2023/09/22 00:29:33;;;;;;;;;0.00;0.00;;;;;-147.14;100.00;58812.66;5079595;27;71301;-59
2023/09/22 00:31:58;;;;;;;;;0.00;0.00;;;;;-147.14;100.00;58812.66;5087632;27;68932;-59
2023/09/22 00:34:24;;;;;;;;;0.00;0.00;;;;;-147.14;100.00;58812.66;5078235;27;65807;-59
2023/09/22 00:36:52;;;;;;;;;1.00;0.00;;;;;-147.14;100.00;58812.66;5084349;27;47059;-59
2023/09/22 00:39:18;;;;;;;;;0.00;0.00;;;;;-147.14;100.00;58812.66;5088365;27;45695;-59
2023/09/22 00:41:43;;;;;;;;;0.00;0.00;;;;;-147.14;100.00;58812.66;5082322;27;45181;-59
2023/09/22 00:44:08;;;;;;;;;0.67;0.00;;;;;-147.14;100.00;58812.66;5091487;27;48652;-59
2023/09/22 00:46:34;;;;;;;;;0.00;0.00;;;;;-147.14;100.00;58812.66;5072313;28;61140;-59
2023/09/22 00:48:59;;;;;;;;;0.00;0.00;;;;;-147.14;100.00;58812.66;5086876;27;45272;-59
2023/09/22 00:51:25;;;;;;;;;0.00;0.00;;;;;-147.14;100.00;58812.66;5084323;27;47243;-59
2023/09/22 00:53:51;;;;;;;;;0.00;0.00;;;;;-147.14;100.00;58812.66;5089259;27;45449;-60
2023/09/22 00:56:19;;;;;;;;;0.00;0.00;;;;;-147.14;100.00;58812.66;5063847;28;45501;-58
2023/09/22 00:58:44;;;;;;;;;0.00;0.00;;;;;-147.14;100.00;58812.66;5078493;27;45387;-59
2023/09/22 01:01:10;;;;;;;;;0.00;0.00;;;;;-147.14;100.00;58812.66;5087782;27;54089;-59
2023/09/22 01:03:35;;;;;;;;;0.00;0.00;;;;;-147.14;100.00;58812.66;5082478;27;45500;-59
2023/09/22 01:06:01;;;;;;;;;0.00;0.00;;;;;-147.14;100.00;58812.66;5097810;27;46558;-59
2023/09/22 01:08:26;;;;;;;;;0.00;0.00;;;;;-147.14;100.00;58812.66;5087438;27;45518;-60
2023/09/22 01:10:51;;;;;;;;;0.00;0.00;;;;;-147.14;100.00;58812.66;5091493;27;66997;-59
2023/09/22 01:13:17;;;;;;;;;2.00;0.00;;;;;-147.14;100.00;58812.66;5087133;27;55299;-59
2023/09/22 01:15:45;;;;;;;;;0.00;0.00;;;;;-147.14;100.00;58812.66;5088996;27;66116;-59
2023/09/22 01:18:13;;;;;;;;;0.00;0.00;;;;;-147.14;100.00;58812.66;5063400;27;45592;-60
2023/09/22 01:20:41;;;;;;;;;0.00;0.00;;;;;-147.14;100.00;58812.66;5097266;27;45417;-60
2023/09/22 01:23:07;;;;;;;;;0.00;0.00;;;;;-147.14;100.00;58812.66;5080117;27;45459;-60
2023/09/22 01:25:33;;;;;;;;;0.00;0.00;;;;;-147.14;100.00;58812.66;5083768;27;46317;-60
2023/09/22 01:27:58;;;;;;;;;0.00;0.00;;;;;-147.14;100.00;58812.66;5088081;27;68789;-59
2023/09/22 01:30:23;;;;;;;;;0.00;0.00;;;;;-147.14;100.00;58812.66;5096579;27;65548;-59
2023/09/22 01:32:49;;;;;;;;;0.00;0.00;;;;;-147.14;100.00;58812.66;5083498;27;69706;-60
2023/09/22 01:35:14;;;;;;;;;0.00;0.00;;;;;-147.14;100.00;58812.66;5089829;27;72038;-59
2023/09/22 01:37:47;;;;;;;;;0.00;0.00;;;;;-147.14;100.00;58812.66;5096306;27;45808;-60
2023/09/22 01:40:14;;;;;;;;;0.00;0.00;;;;;-147.14;100.00;58812.66;5070119;27;45398;-59
2023/09/22 01:42:39;;;;;;;;;0.33;0.00;;;;;-147.14;100.00;58812.66;5094473;27;45578;-59
2023/09/22 01:45:05;;;;;;;;;0.00;0.00;;;;;-147.14;100.00;58812.66;5090700;27;71019;-59
2023/09/22 01:47:32;;;;;;;;;0.00;0.00;;;;;-147.14;100.00;58812.66;5087407;27;45568;-59
2023/09/22 01:49:57;;;;;;;;;0.00;0.00;;;;;-147.14;100.00;58812.66;5086179;27;45868;-59
2023/09/22 01:52:23;;;;;;;;;0.00;0.00;;;;;-147.14;100.00;58812.66;5096310;27;45203;-59
2023/09/22 01:54:48;;;;;;;;;0.00;0.00;;;;;-147.14;100.00;58812.66;5095414;27;47130;-59
2023/09/22 01:57:16;;;;;;;;;1.00;0.00;;;;;-147.14;100.00;58812.66;5074228;27;72222;-59
2023/09/22 01:59:41;;;;;;;;;0.00;0.00;;;;;-147.14;100.00;58812.66;5092557;27;45430;-59
2023/09/22 02:02:06;;;;;;;;;0.00;0.00;;;;;-147.14;100.00;58812.66;5092384;27;45548;-59
2023/09/22 02:04:32;;;;;;;;;0.00;0.00;;;;;-147.14;100.00;58812.66;5086083;27;46278;-59
2023/09/22 02:06:57;;;;;;;;;0.00;0.00;;;;;-147.14;100.00;58812.66;5086580;27;45457;-60
2023/09/22 02:09:22;;;;;;;;;0.00;0.00;;;;;-147.14;100.00;58812.66;5084246;27;45746;-60
2023/09/22 02:11:48;;;;;;;;;0.00;0.00;;;;;-147.14;100.00;58812.66;5096322;27;66456;-58
2023/09/22 02:14:13;;;;;;;;;0.00;0.00;;;;;-147.14;100.00;58812.66;5092180;27;46966;-58
2023/09/22 02:16:40;;;;;;;;;0.00;0.00;;;;;-147.14;100.00;58812.66;5085543;27;64425;-58
2023/09/22 02:19:05;;;;;;;;;1.00;0.67;;;;;-147.14;100.00;58812.66;5087105;27;45398;-58
2023/09/22 02:21:30;;;;;;;;;0.33;0.00;;;;;-147.14;100.00;58812.66;5089099;27;45473;-59
2023/09/22 02:23:56;;;;;;;;;0.00;0.00;;;;;-147.14;100.00;58812.66;5084142;27;46159;-59
2023/09/22 02:26:21;;;;;;;;;0.00;0.00;;;;;-147.14;100.00;58812.66;5085053;27;45459;-59
2023/09/22 02:28:51;;;;;;;;;0.00;0.00;;;;;-147.14;100.00;58812.66;5088896;27;45887;-59
2023/09/22 02:31:16;;;;;;;;;1.00;0.00;;;;;-147.14;100.00;58812.66;5093852;27;45534;-59
2023/09/22 02:33:41;;;;;;;;;0.00;0.00;;;;;-147.14;100.00;58812.66;5095263;27;47437;-58
2023/09/22 02:36:07;;;;;;;;;0.00;0.00;;;;;-147.14;100.00;58812.66;5089022;27;56343;-58
2023/09/22 02:38:33;;;;;;;;;0.00;0.00;;;;;-147.14;100.00;58812.66;5099760;27;45391;-58
2023/09/22 02:40:58;;;;;;;;;0.00;0.00;;;;;-147.14;100.00;58812.66;5091426;27;45461;-58
2023/09/22 02:43:24;;;;;;;;;0.00;0.00;;;;;-147.14;100.00;58812.66;5079937;27;46198;-58
2023/09/22 02:45:51;;;;;;;;;0.00;0.00;;;;;-147.14;100.00;58812.66;5086963;27;45547;-61
2023/09/22 02:48:16;;;;;;;;;0.00;0.00;;;;;-147.14;100.00;58812.66;5100029;27;45393;-59
2023/09/22 02:50:41;;;;;;;;;0.00;0.00;;;;;-147.14;100.00;58812.66;5072146;27;59744;-59
2023/09/22 02:53:07;;;;;;;;;0.00;0.00;;;;;-147.14;100.00;58812.66;5081376;27;46427;-59
2023/09/22 02:55:37;;;;;;;;;0.00;0.00;;;;;-147.14;100.00;58812.66;5068251;27;73327;-59
2023/09/22 02:58:02;;;;;;;;;0.00;0.00;;;;;-147.14;100.00;58812.66;5094477;27;45480;-59
2023/09/22 03:00:28;;;;;;;;;0.00;0.00;;;;;-147.14;100.00;58812.66;5091854;27;45489;-60
2023/09/22 03:02:53;;;;;;;;;0.00;0.00;;;;;-147.14;100.00;58812.66;5072699;27;73775;-60
2023/09/22 03:05:19;;;;;;;;;0.00;0.00;;;;;-147.14;100.00;58812.66;5090196;27;53824;-60
2023/09/22 03:07:44;;;;;;;;;0.00;0.00;;;;;-147.14;100.00;58812.66;5091126;27;45803;-60
2023/09/22 03:10:13;;;;;;;;;0.00;0.00;;;;;-147.14;100.00;58812.66;5090774;27;45302;-59
2023/09/22 03:12:38;;;;;;;;;0.00;0.00;;;;;-147.14;100.00;58812.66;5099123;27;46076;-60
2023/09/22 03:15:05;;;;;;;;;0.00;0.00;;;;;-147.14;100.00;58812.66;5088086;27;68431;-60
2023/09/22 03:17:30;;;;;;;;;0.00;0.00;;;;;-147.14;100.00;58812.66;5078279;27;45580;-60
2023/09/22 03:19:58;;;;;;;;;0.67;0.00;;;;;-147.14;100.00;58812.66;5083273;27;45653;-60
2023/09/22 03:22:25;;;;;;;;;2.00;0.00;;;;;-147.14;100.00;58812.66;5099214;27;45453;-60
2023/09/22 03:24:51;;;;;;;;;0.00;0.00;;;;;-147.14;100.00;58812.66;5095097;27;45607;-59
2023/09/22 03:27:16;;;;;;;;;0.00;0.00;;;;;-147.14;100.00;58812.66;5093793;27;45338;-60
2023/09/22 03:29:41;;;;;;;;;1.00;0.00;;;;;-147.14;100.00;58812.66;5086001;27;45515;-59
2023/09/22 03:32:07;;;;;;;;;0.33;0.33;;;;;-147.14;100.00;58812.66;5096951;27;75497;-60
2023/09/22 03:34:32;;;;;;;;;0.00;0.00;;;;;-147.14;100.00;58812.66;5084864;27;68269;-60
2023/09/22 03:36:59;;;;;;;;;0.33;0.00;;;;;-147.14;100.00;58812.66;5092727;27;45825;-59
2023/09/22 03:39:26;;;;;;;;;1.00;0.00;;;;;-147.14;100.00;58812.66;5092819;27;45467;-60
2023/09/22 03:41:52;;;;;;;;;0.00;0.00;;;;;-147.14;100.00;58812.66;5097398;27;46887;-60
2023/09/22 03:44:19;;;;;;;;;0.00;0.00;;;;;-147.14;100.00;58812.66;5087900;27;45406;-60
2023/09/22 03:46:44;;;;;;;;;0.00;0.00;;;;;-147.14;100.00;58812.66;5085626;27;45822;-59
2023/09/22 03:49:09;;;;;;;;;0.00;0.00;;;;;-147.14;100.00;58812.66;5068705;27;47641;-59
2023/09/22 03:51:35;;;;;;;;;0.00;0.00;;;;;-147.14;100.00;58812.66;5089066;27;74310;-59
2023/09/22 03:54:00;;;;;;;;;0.00;0.00;;;;;-147.14;100.00;58812.66;5083170;27;70513;-59
2023/09/22 03:56:25;;;;;;;;;0.00;0.00;;;;;-147.14;100.00;58812.66;5089104;27;64997;-59
2023/09/22 03:58:51;;;;;;;;;0.00;0.00;;;;;-147.14;100.00;58812.66;5085034;27;64424;-60
2023/09/22 04:01:16;;;;;;;;;0.00;0.00;;;;;-147.14;100.00;58812.66;5089584;27;73025;-59
2023/09/22 04:03:41;;;;;;;;;0.33;0.33;;;;;-147.14;100.00;58812.66;5084324;27;71051;-59
2023/09/22 04:06:07;;;;;;;;;0.00;0.00;;;;;-147.14;100.00;58812.66;5091847;27;68974;-60
2023/09/22 04:08:32;;;;;;;;;0.00;0.00;;;;;-147.14;100.00;58812.66;5090042;27;67388;-63
2023/09/22 04:10:57;;;;;;;;;0.00;0.00;;;;;-147.14;100.00;58812.66;5087164;27;46250;-59
2023/09/22 04:13:24;;;;;;;;;0.00;0.00;;;;;-147.14;100.00;58812.66;5087198;27;64686;-59
2023/09/22 04:15:58;;;;;;;;;0.67;0.33;;;;;-147.14;100.00;58812.66;5092066;27;45661;-59
2023/09/22 04:18:24;;;;;;;;;0.00;0.00;;;;;-147.14;100.00;58812.66;5088038;27;45408;-60
2023/09/22 04:20:51;;;;;;;;;0.33;0.00;;;;;-147.14;100.00;58812.66;5087827;27;45410;-59
2023/09/22 04:23:16;;;;;;;;;0.00;0.00;;;;;-147.14;100.00;58812.66;5090565;27;45373;-60
2023/09/22 04:25:42;;;;;;;;;0.33;0.33;;;;;-147.14;100.00;58812.66;5082565;27;69370;-60
2023/09/22 04:28:09;;;;;;;;;0.67;0.67;;;;;-147.14;100.00;58812.66;5092873;27;45447;-59
2023/09/22 04:30:37;;;;;;;;;1.00;0.00;;;;;-147.14;100.00;58812.66;5080158;27;47086;-59
2023/09/22 04:33:03;;;;;;;;;1.00;1.00;;;;;-147.14;100.00;58812.66;5096486;27;45394;-59
2023/09/22 04:35:32;;;;;;;;;0.00;0.00;;;;;-147.14;100.00;58812.66;5087461;27;45527;-59
2023/09/22 04:37:57;;;;;;;;;1.00;1.00;;;;;-147.14;100.00;58812.66;5086188;27;45458;-60
2023/09/22 04:40:24;;;;;;;;;1.00;1.00;;;;;-147.14;100.00;58812.66;5096809;27;45508;-59
2023/09/22 04:42:50;;;;;;;;;2.00;1.00;;;;;-147.14;100.00;58812.66;5098103;27;45346;-59
2023/09/22 04:45:19;;;;;;;;;0.67;0.67;;;;;-147.14;100.00;58812.66;5092777;27;45410;-60
2023/09/22 04:47:46;;;;;;;;;1.33;0.00;;;;;-147.14;100.00;58812.66;5089298;27;45441;-59
2023/09/22 04:50:15;;;;;;;;;2.33;1.00;;;;;-147.14;100.00;58812.66;5071573;27;46390;-59
2023/09/22 04:52:41;;;;;;;;;1.67;1.67;;;;;-147.14;100.00;58812.66;5091871;27;45351;-60
2023/09/22 04:55:06;;;;;;;;;0.33;0.33;;;;;-147.14;100.00;58812.66;5100346;27;45389;-60
2023/09/22 04:57:32;;;;;;;;;2.00;1.00;;;;;-147.14;100.00;58812.66;5094749;27;45571;-60
2023/09/22 04:59:57;;;;;;;;;1.00;1.00;;;;;-147.14;100.00;58812.66;5098351;27;45340;-60
2023/09/22 05:02:22;;;;;;;;;2.00;2.00;;;;;-147.14;100.00;58812.66;5087960;27;70436;-60
2023/09/22 05:04:48;;;;;;;;;1.00;1.00;;;;;-147.14;100.00;58812.66;5074015;27;62353;-60
2023/09/22 05:07:13;;;;;;;;;1.00;1.00;;;;;-147.14;100.00;58812.66;5094732;27;45637;-59
2023/09/22 05:09:39;;;;;;;;;0.67;0.67;;;;;-147.14;100.00;58812.66;5089452;27;46724;-59
2023/09/22 05:12:05;;;;;;;;;2.67;1.00;;;;;-147.14;100.00;58812.66;5091480;27;45590;-59
2023/09/22 05:14:30;;;;;;;;;1.00;1.00;;;;;-147.14;100.00;58812.66;5098196;27;45336;-59
2023/09/22 05:16:55;;;;;;;;;0.00;0.00;;;;;-147.14;100.00;58812.66;5083002;27;45337;-59
2023/09/22 05:19:21;;;;;;;;;4.33;2.00;;;;;-147.14;100.00;58812.66;5087934;27;70820;-60
2023/09/22 05:21:46;;;;;;;;;1.00;1.00;;;;;-147.14;100.00;58812.66;5083466;27;68696;-59
2023/09/22 05:24:12;;;;;;;;;0.00;0.00;;;;;-147.14;100.00;58812.66;5089454;27;45274;-59
2023/09/22 05:26:37;;;;;;;;;0.00;0.00;;;;;-147.14;100.00;58812.66;5090180;27;45622;-59
2023/09/22 05:29:03;;;;;;;;;1.67;1.33;;;;;-147.14;100.00;58812.66;5085655;27;46612;-59
2023/09/22 05:31:28;;;;;;;;;0.00;0.00;;;;;-147.14;100.00;58812.66;5084847;27;45565;-59
2023/09/22 05:33:55;;;;;;;;;2.67;1.33;;;;;-147.14;100.00;58812.66;5080876;27;45287;-60
2023/09/22 05:36:20;;;;;;;;;1.00;1.00;;;;;-147.14;100.00;58812.66;5084601;27;45516;-59
2023/09/22 05:38:46;;;;;;;;;1.33;1.00;;;;;-147.14;100.00;58812.66;5081368;27;46097;-60
2023/09/22 05:41:11;;;;;;;;;0.67;0.67;;;;;-147.14;100.00;58812.66;5082511;27;45256;-59
2023/09/22 05:43:36;;;;;;;;;1.33;1.33;;;;;-147.14;100.00;58812.66;5087748;27;45286;-63
2023/09/22 05:46:03;;;;;;;;;0.00;0.00;;;;;-147.14;100.00;58812.66;5080623;28;66738;-60
2023/09/22 05:48:30;;;;;;;;;2.00;0.33;;;;;-147.14;100.00;58812.66;5062329;28;47170;-60
2023/09/22 05:51:00;;;;;;;;;1.67;0.67;;;;;-147.14;100.00;58812.66;5088503;27;45350;-60
2023/09/22 05:53:26;;;;;;;;;0.00;0.00;;;;;-147.14;100.00;58812.66;5077813;27;45513;-59
2023/09/22 05:56:09;;;;;;;;;1.67;1.00;;;;;-147.14;100.00;58812.66;5075839;27;45319;-59
2023/09/22 05:58:36;;;;;;;;;1.00;1.00;;;;;-147.14;100.00;58812.66;5073403;27;46879;-59
2023/09/22 06:01:09;;;;;;;;;0.00;0.00;;;;;-147.14;100.00;58812.66;5086020;27;45818;-59
2023/09/22 06:03:36;;;;;;;;;1.00;1.00;;;;;-147.14;100.00;58812.66;5097748;27;45387;-59
2023/09/22 06:06:09;;;;;;;;;1.00;0.00;;;;;-147.14;100.00;58812.66;5093645;27;45627;-59
2023/09/22 06:08:39;;;;;;;;;2.00;0.67;;;;;-147.14;100.00;58812.66;5066352;28;45615;-59
2023/09/22 06:11:05;;;;;;;;;0.00;0.00;;;;;-147.14;100.00;58812.66;5062528;28;45482;-59
2023/09/22 06:13:30;;;;;;;;;0.00;0.00;;;;;-147.14;100.00;58812.66;5081366;27;45410;-59
2023/09/22 06:15:56;;;;;;;;;2.00;0.33;;;;;-147.14;100.00;58812.66;5082781;27;66392;-60
2023/09/22 06:18:22;;;;;;;;;1.00;1.00;;;;;-147.14;100.00;58812.66;5066297;27;47401;-60
2023/09/22 06:20:48;;;;;;;;;1.33;1.33;;;;;-147.14;100.00;58812.66;5102000;27;45321;-59
2023/09/22 06:23:13;;;;;;;;;0.67;0.67;;;;;-147.14;100.00;58812.66;5092417;27;45481;-59
2023/09/22 06:25:38;;;;;;;;;0.00;0.00;;;;;-147.14;100.00;58812.66;5088294;27;45698;-61
2023/09/22 06:28:05;;;;;;;;;0.00;0.00;;;;;-147.14;100.00;58812.66;5087889;27;45941;-60
2023/09/22 06:30:34;;;;;;;;;1.33;0.33;;;;;-147.14;100.00;58812.66;5080781;27;45461;-60
2023/09/22 06:33:00;;;;;;;;;3.33;0.67;;;;;-147.14;100.00;58812.66;5088244;27;45601;-61
2023/09/22 06:35:25;;;;;;;;;1.00;1.00;;;;;-147.14;100.00;58812.66;5089063;27;45575;-57
2023/09/22 06:37:51;;;;;;;;;0.33;0.33;;;;;-147.14;100.00;58812.66;5088498;27;70678;-57
2023/09/22 06:40:17;;;;;;;;;0.33;0.33;;;;;-147.14;100.00;58812.66;5080239;27;45453;-56
2023/09/22 06:42:44;;;;;;;;;0.00;0.00;;;;;-147.14;100.00;58812.66;5080663;28;45458;-58
2023/09/22 06:45:10;;;;;;;;;0.67;0.67;;;;;-147.14;100.00;58812.66;5085623;27;45814;-57
2023/09/22 06:47:41;;;;;;;;;0.00;0.00;;;;;-147.14;100.00;58812.66;5096376;27;46005;-57
2023/09/22 06:50:08;;;;;;;;;1.00;1.00;;;;;-147.14;100.00;58812.66;5095356;27;45393;-57
2023/09/22 06:52:34;;;;;;;;;0.00;0.00;;;;;-147.14;100.00;58812.66;5095139;27;45413;-56
2023/09/22 06:55:02;;;;;;;;;1.00;1.00;;;;;-147.14;100.00;58812.66;5102018;27;45616;-57
2023/09/22 06:57:29;;;;;;;;;0.00;0.00;;;;;-147.14;100.00;58812.66;5077894;28;46250;-57
2023/09/22 06:59:55;;;;;;;;;0.33;0.33;;;;;-147.14;100.00;58812.66;5093253;27;45391;-57
2023/09/22 07:02:21;;;;;;;;;1.00;0.00;;;;;-147.14;100.00;58812.66;5078899;28;45527;-56
2023/09/22 07:04:47;;;;;;;;;0.33;0.33;;;;;-147.14;100.00;58812.66;5093612;27;45431;-57
2023/09/22 07:07:13;;;;;;;;;1.67;1.00;;;;;-147.14;100.00;58812.66;5092151;27;46032;-55
2023/09/22 07:09:43;;;;;;;;;0.00;0.00;;;;;-147.14;100.00;58812.66;5066050;27;45523;-56
2023/09/22 07:12:08;;;;;;;;;1.00;0.67;;;;;-147.14;100.00;58812.66;5072734;27;45436;-55
2023/09/22 07:14:33;;;;;;;;;3.00;0.33;;;;;-147.14;100.00;58812.66;5090723;27;45231;-56
2023/09/22 07:16:59;;;;;;;;;0.67;0.67;;;;;-147.14;100.00;58812.66;5089430;27;46152;-55
2023/09/22 07:19:24;;;;;;;;;1.00;1.00;;;;;-147.14;100.00;58812.66;5094341;27;72022;-55
2023/09/22 07:21:51;;;;;;;;;0.00;0.00;;;;;-147.14;100.00;58812.66;5087967;27;45386;-56
2023/09/22 07:24:17;;;;;;;;;0.00;0.00;;;;;-147.14;100.00;58812.66;5065688;27;45474;-56
2023/09/22 07:26:42;;;;;;;;;2.00;1.33;;;;;-147.14;100.00;58812.66;5090200;27;46342;-56
2023/09/22 07:29:08;;;;;;;;;0.00;0.00;;;;;-147.14;100.00;58812.66;5092467;27;70037;-56
2023/09/22 07:31:33;;;;;;;;;2.00;2.00;;;;;-147.14;100.00;58812.66;5084486;27;63499;-55
2023/09/22 07:33:58;;;;;;;;;0.67;0.67;;;;;-147.14;100.00;58812.66;5086604;27;45464;-55
2023/09/22 07:36:26;;;;;;;;;1.67;1.67;;;;;-147.14;100.00;58812.66;5086952;27;46789;-56
2023/09/22 07:38:52;;;;;;;;;2.00;0.00;;;;;-147.14;100.00;58812.66;5095942;27;46695;-57
2023/09/22 07:41:17;;;;;;;;;0.00;0.00;;;;;-147.14;100.00;58812.66;5070965;27;45378;-54
2023/09/22 07:43:43;;;;;;;;;0.00;0.00;;;;;-147.14;100.00;58812.66;5092958;27;45355;-53
2023/09/22 07:46:08;;;;;;;;;0.00;0.00;;;;;-147.14;100.00;58812.66;5084103;27;45342;-52
2023/09/22 07:48:35;;;;;;;;;0.00;0.00;;;;;-147.14;100.00;58812.66;5091724;27;72798;-53
2023/09/22 07:51:00;;;;;;;;;0.00;0.00;;;;;-147.14;100.00;58812.66;5084312;27;45447;-54
2023/09/22 07:53:26;;;;;;;;;0.67;0.67;;;;;-147.14;100.00;58812.66;5091676;27;45405;-51
2023/09/22 07:56:01;;;;;;;;;0.00;0.00;;;;;-147.14;100.00;58812.66;5093651;27;45455;-51
2023/09/22 07:58:27;;;;;;;;;0.00;0.00;;;;;-147.14;100.00;58812.66;5084019;27;45465;-52
2023/09/22 08:00:53;;;;;;;;;0.00;0.00;;;;;-147.14;100.00;58812.66;5085499;27;45520;-59
2023/09/22 08:03:19;;;;;;;;;0.67;0.67;;;;;-147.14;100.00;58812.66;5097282;27;45367;-54
2023/09/22 08:05:45;;;;;;;;;0.67;0.67;;;;;-147.14;100.00;58812.66;5085160;27;46557;-54
2023/09/22 08:08:11;;;;;;;;;1.33;1.00;;;;;-147.14;100.00;58812.66;5062470;28;45484;-54
2023/09/22 08:10:38;;;;;;;;;1.67;1.33;;;;;-147.14;100.00;58812.66;5067704;28;45417;-54
2023/09/22 08:13:07;;;;;;;;;1.00;1.00;;;;;-147.14;100.00;58812.66;5082646;27;45571;-54
2023/09/22 08:15:33;;;;;;;;;0.67;0.67;;;;;-147.14;100.00;58812.66;5080013;27;46180;-54
2023/09/22 08:17:58;;;;;;;;;1.67;1.67;;;;;-147.14;100.00;58812.66;5079730;27;45590;-53
2023/09/22 08:20:24;;;;;;;;;2.00;2.00;;;;;-147.14;100.00;58812.66;5083680;27;68369;-54
2023/09/22 08:22:49;;;;;;;;;0.00;0.00;;;;;-147.14;100.00;58812.66;5087586;27;45706;-52
2023/09/22 08:25:14;;;;;;;;;0.33;0.33;;;;;-147.14;100.00;58812.66;5087338;27;46085;-54
2023/09/22 08:27:40;;;;;;;;;1.67;1.00;;;;;-147.14;100.00;58812.66;5079946;27;45464;-52
2023/09/22 08:30:13;;;;;;;;;2.67;0.00;;;;;-147.14;100.00;58812.66;5090321;27;45508;-51
2023/09/22 08:32:40;;;;;;;;;0.00;0.00;;;;;-147.14;100.00;58812.66;5042220;28;45441;-54
2023/09/22 08:35:10;;;;;;;;;0.33;0.00;;;;;-147.14;100.00;58812.66;5051957;28;46135;-52
2023/09/22 08:37:42;;;;;;;;;0.00;0.00;;;;;-147.14;100.00;58812.66;5046018;28;45262;-52
2023/09/22 08:40:15;;;;;;;;;0.00;0.00;;;;;-147.14;100.00;58812.66;5054398;28;45516;-54
2023/09/22 08:42:43;;;;;;;;;0.00;0.00;;;;;-147.14;100.00;58812.66;5043779;28;45461;-54
2023/09/22 08:45:09;;;;;;;;;0.00;0.00;;;;;-147.14;100.00;58812.66;5052173;28;46223;-52
2023/09/22 08:47:39;;;;;;;;;0.00;0.00;;;;;-147.14;100.00;58812.66;5051134;28;45486;-53
2023/09/22 08:50:24;;;;;;;;;0.00;0.00;;;;;-147.14;100.00;58812.66;5054175;28;45298;-53
2023/09/22 08:52:52;;;;;;;;;0.67;0.00;;;;;-147.14;100.00;58812.66;5046275;28;49656;-52
2023/09/22 08:55:19;;;;;;;;;1.33;0.00;;;;;-147.14;100.00;58812.66;5052429;28;46056;-52
2023/09/22 08:57:47;;;;;;;;;0.00;0.00;;;;;-147.14;100.00;58812.66;5041125;28;45713;-54
2023/09/22 09:00:19;;;;;;;;;0.00;0.00;;;;;-147.14;100.00;58812.66;5046740;28;45803;-54
2023/09/22 09:02:46;;;;;;;;;0.33;0.33;;;;;-147.14;100.00;58812.66;5041767;28;45460;-51
2023/09/22 09:05:31;;;;;;;;;0.00;0.00;;;;;-147.14;100.00;58812.66;5055617;28;45462;-52
2023/09/22 09:08:11;;;;;;;;;1.00;0.00;;;;;-147.14;100.00;58812.66;5047435;28;45581;-53
2023/09/22 09:10:37;;;;;;;;;0.00;0.00;;;;;-147.14;100.00;58812.66;5048540;28;45481;-53
2023/09/22 09:13:03;;;;;;;;;0.00;0.00;;;;;-147.14;100.00;58812.66;5046802;28;45332;-53
2023/09/22 09:15:50;;;;;;;;;0.33;0.00;;;;;-147.14;100.00;58812.66;5041697;28;45343;-52
2023/09/22 09:18:20;;;;;;;;;1.00;0.00;;;;;-147.14;100.00;58812.66;5050865;28;45479;-54
2023/09/22 09:20:48;;;;;;;;;0.00;0.00;;;;;-147.14;100.00;58812.66;5044249;28;45462;-54
2023/09/22 09:23:18;;;;;;;;;0.00;0.00;;;;;-147.14;100.00;58812.66;5069201;28;45594;-53
2023/09/22 09:25:50;;;;;;;;;1.00;1.00;;;;;-147.14;100.00;58812.66;5054797;28;46997;-53
2023/09/22 09:28:17;;;;;;;;;0.00;0.00;;;;;-147.14;100.00;58812.66;5047447;28;45605;-54
2023/09/22 09:30:54;;;;;;;;;1.33;0.00;;;;;-147.14;100.00;58812.66;5064558;27;45429;-53
2023/09/22 09:33:27;;;;;;;;;0.00;0.00;;;;;-147.14;100.00;58812.66;5084910;27;45234;-54
2023/09/22 09:35:54;;;;;;;;;0.00;0.00;;;;;-147.14;100.00;58812.66;5084728;27;46811;-56
2023/09/22 09:38:22;;;;;;;;;0.67;0.67;;;;;-147.14;100.00;58812.66;5083771;27;45458;-56
2023/09/22 09:40:50;;;;;;;;;0.67;0.67;;;;;-147.14;100.00;58812.66;5094502;27;45601;-56
2023/09/22 09:43:15;;;;;;;;;0.00;0.00;;;;;-147.14;100.00;58812.66;5084776;27;45307;-56
2023/09/22 09:45:43;;;;;;;;;0.00;0.00;;;;;-147.14;100.00;58812.66;5081992;27;64276;-56
2023/09/22 09:48:16;;;;;;;;;0.00;0.00;;;;;-147.14;100.00;58812.66;5083652;27;45414;-57
2023/09/22 09:50:51;;;;;;;;;0.00;0.00;;;;;-147.14;100.00;58812.66;5084232;27;45303;-56
2023/09/22 09:53:28;;;;;;;;;0.00;0.00;;;;;-147.14;100.00;58812.66;5083259;27;45440;-56
2023/09/22 09:55:59;;;;;;;;;0.00;0.00;;;;;-147.14;100.00;58812.66;5090774;27;46870;-57
2023/09/22 09:58:26;;;;;;;;;0.00;0.00;;;;;-147.14;100.00;58812.66;5079153;27;45647;-56
2023/09/22 10:00:52;;;;;;;;;0.00;0.00;;;;;-147.14;100.00;58812.66;5091129;27;45353;-57
2023/09/22 10:03:20;;;;;;;;;0.00;0.00;;;;;-147.14;100.00;58812.66;5082460;27;69147;-56
2023/09/22 10:05:46;;;;;;;;;0.00;0.00;;;;;-147.14;100.00;58812.66;5091377;27;46870;-57
2023/09/22 10:08:12;;;;;;;;;0.00;0.00;;;;;-147.14;100.00;58812.66;5094344;27;45981;-56
2023/09/22 10:10:38;;;;;;;;;0.00;0.00;;;;;-147.14;100.00;58812.66;5096633;27;45417;-56
2023/09/22 10:13:04;;;;;;;;;0.00;0.00;;;;;-147.14;100.00;58812.66;5071339;28;45307;-56
2023/09/22 10:15:52;;;;;;;;;0.00;0.00;;;;;-147.14;100.00;58812.66;5090985;27;47296;-56
2023/09/22 10:18:19;;;;;;;;;0.00;0.00;;;;;-147.14;100.00;58812.66;5084579;27;45497;-56
2023/09/22 10:20:45;;;;;;;;;1.00;0.00;;;;;-147.14;100.00;58812.66;5085130;27;45948;-56
2023/09/22 10:23:27;;;;;;;;;0.00;0.00;;;;;-147.14;100.00;58812.66;5090943;27;45284;-55
2023/09/22 10:26:04;;;;;;;;;0.00;0.00;;;;;-147.14;100.00;58812.66;5086806;27;46001;-55
2023/09/22 10:28:29;;;;;;;;;0.00;0.00;;;;;-147.14;100.00;58812.66;5094497;27;45426;-56
2023/09/22 10:30:58;;;;;;;;;0.00;0.00;;;;;-147.14;100.00;58812.66;5075359;27;65550;-59
2023/09/22 10:33:26;;;;;;;;;0.00;0.00;;;;;-147.14;100.00;58812.66;5086166;27;45404;-56
2023/09/22 10:35:51;;;;;;;;;0.00;0.00;;;;;-147.14;100.00;58812.66;5092739;27;46411;-56
2023/09/22 10:38:20;;;;;;;;;0.00;0.00;;;;;-147.14;100.00;58812.66;5077533;27;63107;-57
2023/09/22 10:41:01;;;;;;;;;0.00;0.00;;;;;-147.14;100.00;58812.66;5096720;27;45390;-57
2023/09/22 10:43:27;;;;;;;;;0.00;0.00;;;;;-147.14;100.00;58812.66;5086639;27;45453;-55
2023/09/22 10:45:53;;;;;;;;;0.00;0.00;;;;;-147.14;100.00;58812.66;5096361;27;45331;-56
2023/09/22 10:48:18;;;;;;;;;0.00;0.00;;;;;-147.14;100.00;58812.66;5092733;27;45482;-55
2023/09/22 10:50:49;;;;;;;;;0.00;0.00;;;;;-147.14;100.00;58812.66;5091948;27;45428;-56
2023/09/22 10:53:15;;;;;;;;;0.00;0.00;;;;;-147.14;100.00;58812.66;5080279;27;45459;-54
2023/09/22 10:55:42;;;;;;;;;0.00;0.00;;;;;-147.14;100.00;58812.66;5069271;27;45862;-55
2023/09/22 10:58:18;;;;;;;;;0.50;0.00;;;;;-147.14;100.00;58812.66;5067456;27;45354;-56
2023/09/22 11:00:58;;;;;;;;;0.00;0.00;;;;;-147.14;100.00;58812.66;5084930;27;45427;-56
2023/09/22 11:03:24;;;;;;;;;0.00;0.00;;;;;-147.14;100.00;58812.66;5097109;27;45490;-56
2023/09/22 11:06:00;;;;;;;;;1.00;0.00;;;;;-147.14;100.00;58812.66;5085289;27;46087;-56
2023/09/22 11:08:26;;;;;;;;;0.00;0.00;;;;;-147.14;100.00;58812.66;5095968;27;45851;-56